Aérodrome :
LOGIN :

S'inscrire | Disclaimer

   EN    FR    IT 

 










Légende :    VFR   VFR Marginal   IFR   IFR Intensif   IFR Très Intensif
Visi : 
Plafond : 
>= 8 km
>= 3000ft
5 à 8 km
1000 à 3000 ft
1500m à 5 km
500 à 1000 ft
800 à 1500m
200 à 500 ft
< 800m
< 200 ft
Symboles :   Orages  Brouillard  Fortes neiges  Fortes précipitations  Vent > 20 kt
SIGMETs :   Divers  Orages  Givrage  Turbulence  Onde Orograph.  Cendres Volcan.






- Altitude de l'aérodrome : 408 ft
- Code IATA : SOB


LHSM - Sarmellek Balaton

DERNIER METAR :
  • 200845Z AUTO 21011KT CAVOK 08/02 Q1017 NOSIG

METARs EXPIRÉS :
  • 200815Z AUTO 21011KT CAVOK 07/01 Q1017 NOSIG
  • 200745Z AUTO 21009KT CAVOK 07/01 Q1017 NOSIG
  • 200715Z AUTO 21011KT CAVOK 07/01 Q1017 NOSIG
  • 200645Z AUTO 21010KT CAVOK 06/01 Q1017 NOSIG
  • 200615Z AUTO 19008KT 160V230 CAVOK 06/01 Q1017 NOSIG

TAF TAF LHSM
Valide du 20 à 09h jusqu'au 20 à 18h UTC


200815Z 2009/2018 21010KT CAVOK
BECMG 2009/2012 22014G24KT
TEMPO 2015/2018 FEW030 SCT260
BECMG 2015/2018 20009KT



MET'MAP, la Météo Aéronautique d'un coup d'oeil ! - Copyright ORBIFLY Décembre 2007 - Disclaimer

ORBIFLY MET'MAP TEAM :

Programmation & Développement : Alexandra Zaïnal
Sur une idée originale de : Baudouin d'Aumeries
Assistance à la programmation : Marc-Olivier Méhu
Soutien technique & logistique : Manuel Goepfert

Contact : metmap@orbifly.com




SOURCES & CREDITS :

   NOAA